Terminal Aerodrome Forecast
Issued by NWS

Home | Current Version | Previous Version | Text Only | Print | Product List | Glossary On
Versions: 1 2 3 4 5 6 7 8 9 10 11 12 13 14 15 16 17 18 19 20 21 22 23 24 25 26 27 28 29 30 31 32 33 34 35 36 37 38 39 40 41
000
FTUS43 KDTX 291100
TAFYIP
TAF
KYIP 291127Z 2912/3012 27005KT P6SM SKC
     FM291600 27012KT P6SM -SHRA SCT035 OVC060
      TEMPO 2920/2923 4SM -SHRA OVC035
     FM300000 30007KT P6SM SCT080 BKN200
     FM300700 24005KT P6SM -SHRA OVC060=

USA.gov is the U.S. government's official web portal to all federal, state and local government web resources and services.